sensor_id;sensor_type;location;lat;lon;timestamp;P1;durP1;ratioP1;P2;durP2;ratioP2
71106;SDS011;58763;47.982;11.516;2023-08-21T00:00:13;7.10;;;4.90;;
71106;SDS011;58763;47.982;11.516;2023-08-21T00:02:39;6.85;;;4.97;;
71106;SDS011;58763;47.982;11.516;2023-08-21T00:05:05;9.00;;;5.15;;
71106;SDS011;58763;47.982;11.516;2023-08-21T00:07:31;9.25;;;5.25;;
71106;SDS011;58763;47.982;11.516;2023-08-21T00:09:56;8.98;;;5.45;;
71106;SDS011;58763;47.982;11.516;2023-08-21T00:12:22;7.65;;;5.03;;
71106;SDS011;58763;47.982;11.516;2023-08-21T00:14:47;9.88;;;5.20;;
71106;SDS011;58763;47.982;11.516;2023-08-21T00:17:13;9.15;;;5.35;;
71106;SDS011;58763;47.982;11.516;2023-08-21T00:19:38;8.55;;;5.22;;
71106;SDS011;58763;47.982;11.516;2023-08-21T00:22:03;9.82;;;5.38;;
71106;SDS011;58763;47.982;11.516;2023-08-21T00:24:29;10.13;;;5.93;;
71106;SDS011;58763;47.982;11.516;2023-08-21T00:26:54;10.40;;;5.63;;
71106;SDS011;58763;47.982;11.516;2023-08-21T00:29:20;11.45;;;5.30;;
71106;SDS011;58763;47.982;11.516;2023-08-21T00:31:45;10.18;;;5.47;;
71106;SDS011;58763;47.982;11.516;2023-08-21T00:34:11;7.25;;;5.00;;
71106;SDS011;58763;47.982;11.516;2023-08-21T00:36:36;8.57;;;5.15;;
71106;SDS011;58763;47.982;11.516;2023-08-21T00:39:01;8.23;;;4.70;;
71106;SDS011;58763;47.982;11.516;2023-08-21T00:41:27;7.38;;;4.90;;
71106;SDS011;58763;47.982;11.516;2023-08-21T00:43:52;8.88;;;5.07;;
71106;SDS011;58763;47.982;11.516;2023-08-21T00:46:18;9.18;;;4.95;;
71106;SDS011;58763;47.982;11.516;2023-08-21T00:48:44;7.40;;;5.10;;
71106;SDS011;58763;47.982;11.516;2023-08-21T00:51:09;8.88;;;5.38;;
71106;SDS011;58763;47.982;11.516;2023-08-21T00:53:36;7.82;;;5.10;;
71106;SDS011;58763;47.982;11.516;2023-08-21T00:56:02;7.55;;;4.78;;
71106;SDS011;58763;47.982;11.516;2023-08-21T00:58:28;6.78;;;4.75;;
71106;SDS011;58763;47.982;11.516;2023-08-21T01:00:54;8.80;;;5.57;;
71106;SDS011;58763;47.982;11.516;2023-08-21T01:03:20;9.73;;;5.80;;
71106;SDS011;58763;47.982;11.516;2023-08-21T01:05:45;7.90;;;5.47;;
71106;SDS011;58763;47.982;11.516;2023-08-21T01:08:19;7.28;;;5.38;;
71106;SDS011;58763;47.982;11.516;2023-08-21T01:16:30;9.60;;;5.22;;
71106;SDS011;58763;47.982;11.516;2023-08-21T01:18:57;7.38;;;5.45;;
71106;SDS011;58763;47.982;11.516;2023-08-21T01:21:25;8.35;;;5.65;;
71106;SDS011;58763;47.982;11.516;2023-08-21T01:23:51;9.25;;;5.65;;
71106;SDS011;58763;47.982;11.516;2023-08-21T01:26:17;9.50;;;5.72;;
71106;SDS011;58763;47.982;11.516;2023-08-21T01:28:42;9.35;;;5.60;;
71106;SDS011;58763;47.982;11.516;2023-08-21T01:33:53;8.85;;;5.60;;
71106;SDS011;58763;47.982;11.516;2023-08-21T01:38:47;8.75;;;5.53;;
71106;SDS011;58763;47.982;11.516;2023-08-21T01:41:13;8.98;;;5.50;;
71106;SDS011;58763;47.982;11.516;2023-08-21T01:43:39;8.85;;;5.57;;
71106;SDS011;58763;47.982;11.516;2023-08-21T01:46:04;8.68;;;5.57;;
71106;SDS011;58763;47.982;11.516;2023-08-21T01:48:31;7.13;;;5.15;;
71106;SDS011;58763;47.982;11.516;2023-08-21T01:50:56;8.95;;;5.40;;
71106;SDS011;58763;47.982;11.516;2023-08-21T01:53:22;9.88;;;5.18;;
71106;SDS011;58763;47.982;11.516;2023-08-21T01:55:48;7.72;;;5.43;;
71106;SDS011;58763;47.982;11.516;2023-08-21T01:58:13;8.80;;;5.18;;
71106;SDS011;58763;47.982;11.516;2023-08-21T02:00:38;7.78;;;5.53;;
71106;SDS011;58763;47.982;11.516;2023-08-21T02:03:04;9.10;;;5.80;;
71106;SDS011;58763;47.982;11.516;2023-08-21T02:05:29;9.00;;;5.93;;
71106;SDS011;58763;47.982;11.516;2023-08-21T02:07:55;8.00;;;5.80;;
71106;SDS011;58763;47.982;11.516;2023-08-21T02:10:20;8.10;;;5.32;;
71106;SDS011;58763;47.982;11.516;2023-08-21T02:12:46;8.15;;;5.05;;
71106;SDS011;58763;47.982;11.516;2023-08-21T02:15:11;10.75;;;5.63;;
71106;SDS011;58763;47.982;11.516;2023-08-21T02:17:36;9.23;;;5.38;;
71106;SDS011;58763;47.982;11.516;2023-08-21T02:20:02;7.57;;;5.30;;
71106;SDS011;58763;47.982;11.516;2023-08-21T02:22:28;9.95;;;5.22;;
71106;SDS011;58763;47.982;11.516;2023-08-21T02:24:53;7.78;;;5.05;;
71106;SDS011;58763;47.982;11.516;2023-08-21T02:27:19;7.03;;;5.25;;
71106;SDS011;58763;47.982;11.516;2023-08-21T02:29:44;7.53;;;5.13;;
71106;SDS011;58763;47.982;11.516;2023-08-21T02:32:10;8.23;;;5.32;;
71106;SDS011;58763;47.982;11.516;2023-08-21T02:34:35;11.35;;;5.57;;
71106;SDS011;58763;47.982;11.516;2023-08-21T02:37:01;9.10;;;5.05;;
71106;SDS011;58763;47.982;11.516;2023-08-21T02:39:26;7.35;;;5.30;;
71106;SDS011;58763;47.982;11.516;2023-08-21T02:41:53;8.55;;;5.60;;
71106;SDS011;58763;47.982;11.516;2023-08-21T02:44:19;8.25;;;4.82;;
71106;SDS011;58763;47.982;11.516;2023-08-21T02:46:45;8.00;;;4.97;;
71106;SDS011;58763;47.982;11.516;2023-08-21T02:49:10;8.23;;;5.28;;
71106;SDS011;58763;47.982;11.516;2023-08-21T02:51:35;10.40;;;5.60;;
71106;SDS011;58763;47.982;11.516;2023-08-21T02:54:01;8.40;;;5.20;;
71106;SDS011;58763;47.982;11.516;2023-08-21T02:56:26;7.47;;;5.18;;
71106;SDS011;58763;47.982;11.516;2023-08-21T02:58:51;8.32;;;5.20;;
71106;SDS011;58763;47.982;11.516;2023-08-21T03:01:17;8.00;;;4.80;;
71106;SDS011;58763;47.982;11.516;2023-08-21T03:03:42;7.93;;;4.95;;
71106;SDS011;58763;47.982;11.516;2023-08-21T03:06:08;7.28;;;4.50;;
71106;SDS011;58763;47.982;11.516;2023-08-21T03:08:33;9.75;;;5.13;;
71106;SDS011;58763;47.982;11.516;2023-08-21T03:10:58;7.35;;;4.57;;
71106;SDS011;58763;47.982;11.516;2023-08-21T03:13:24;9.07;;;4.78;;
71106;SDS011;58763;47.982;11.516;2023-08-21T03:15:49;8.25;;;4.43;;
71106;SDS011;58763;47.982;11.516;2023-08-21T03:18:15;7.53;;;4.63;;
71106;SDS011;58763;47.982;11.516;2023-08-21T03:20:44;9.23;;;5.20;;
71106;SDS011;58763;47.982;11.516;2023-08-21T03:23:11;6.80;;;4.38;;
71106;SDS011;58763;47.982;11.516;2023-08-21T03:25:37;9.43;;;5.22;;
71106;SDS011;58763;47.982;11.516;2023-08-21T03:28:03;7.72;;;4.82;;
71106;SDS011;58763;47.982;11.516;2023-08-21T03:30:28;8.80;;;4.95;;
71106;SDS011;58763;47.982;11.516;2023-08-21T03:32:54;11.15;;;4.57;;
71106;SDS011;58763;47.982;11.516;2023-08-21T03:35:19;7.13;;;4.57;;
71106;SDS011;58763;47.982;11.516;2023-08-21T03:37:44;10.30;;;4.88;;
71106;SDS011;58763;47.982;11.516;2023-08-21T03:40:10;8.85;;;4.68;;
71106;SDS011;58763;47.982;11.516;2023-08-21T03:42:35;7.60;;;4.88;;
71106;SDS011;58763;47.982;11.516;2023-08-21T03:45:01;8.73;;;4.70;;
71106;SDS011;58763;47.982;11.516;2023-08-21T03:47:29;6.35;;;4.28;;
71106;SDS011;58763;47.982;11.516;2023-08-21T03:49:54;8.02;;;4.60;;
71106;SDS011;58763;47.982;11.516;2023-08-21T03:52:19;9.02;;;5.13;;
71106;SDS011;58763;47.982;11.516;2023-08-21T03:54:45;6.50;;;4.60;;
71106;SDS011;58763;47.982;11.516;2023-08-21T03:57:10;6.45;;;4.70;;
71106;SDS011;58763;47.982;11.516;2023-08-21T03:59:36;8.68;;;5.18;;
71106;SDS011;58763;47.982;11.516;2023-08-21T04:02:02;7.43;;;5.10;;
71106;SDS011;58763;47.982;11.516;2023-08-21T04:04:27;9.43;;;4.95;;
71106;SDS011;58763;47.982;11.516;2023-08-21T04:06:52;7.93;;;4.70;;
71106;SDS011;58763;47.982;11.516;2023-08-21T04:09:18;12.40;;;5.25;;
71106;SDS011;58763;47.982;11.516;2023-08-21T04:11:43;8.20;;;5.10;;
71106;SDS011;58763;47.982;11.516;2023-08-21T04:14:09;8.93;;;4.80;;
71106;SDS011;58763;47.982;11.516;2023-08-21T04:16:34;7.85;;;4.57;;
71106;SDS011;58763;47.982;11.516;2023-08-21T04:18:59;7.53;;;4.75;;
71106;SDS011;58763;47.982;11.516;2023-08-21T04:21:25;8.18;;;5.25;;
71106;SDS011;58763;47.982;11.516;2023-08-21T04:23:50;6.10;;;4.30;;
71106;SDS011;58763;47.982;11.516;2023-08-21T04:26:16;9.07;;;4.63;;
71106;SDS011;58763;47.982;11.516;2023-08-21T04:28:41;7.57;;;4.78;;
71106;SDS011;58763;47.982;11.516;2023-08-21T04:31:07;8.25;;;5.10;;
71106;SDS011;58763;47.982;11.516;2023-08-21T04:33:33;6.53;;;4.60;;
71106;SDS011;58763;47.982;11.516;2023-08-21T04:35:59;7.80;;;4.88;;
71106;SDS011;58763;47.982;11.516;2023-08-21T04:38:24;7.53;;;4.43;;
71106;SDS011;58763;47.982;11.516;2023-08-21T04:40:50;9.75;;;4.70;;
71106;SDS011;58763;47.982;11.516;2023-08-21T04:43:15;7.97;;;4.72;;
71106;SDS011;58763;47.982;11.516;2023-08-21T04:45:51;8.70;;;4.85;;
71106;SDS011;58763;47.982;11.516;2023-08-21T04:48:19;8.70;;;4.93;;
71106;SDS011;58763;47.982;11.516;2023-08-21T04:50:46;8.63;;;5.00;;
71106;SDS011;58763;47.982;11.516;2023-08-21T04:53:11;8.30;;;5.32;;
71106;SDS011;58763;47.982;11.516;2023-08-21T04:55:37;9.95;;;5.22;;
71106;SDS011;58763;47.982;11.516;2023-08-21T04:58:05;10.02;;;5.18;;
71106;SDS011;58763;47.982;11.516;2023-08-21T05:00:31;6.95;;;4.90;;
71106;SDS011;58763;47.982;11.516;2023-08-21T05:02:57;8.07;;;5.15;;
71106;SDS011;58763;47.982;11.516;2023-08-21T05:05:22;10.48;;;4.78;;
71106;SDS011;58763;47.982;11.516;2023-08-21T05:07:48;7.63;;;5.30;;
71106;SDS011;58763;47.982;11.516;2023-08-21T05:10:13;8.45;;;5.00;;
71106;SDS011;58763;47.982;11.516;2023-08-21T05:12:39;8.93;;;5.00;;
71106;SDS011;58763;47.982;11.516;2023-08-21T05:15:04;8.75;;;4.70;;
71106;SDS011;58763;47.982;11.516;2023-08-21T05:17:30;8.07;;;4.95;;
71106;SDS011;58763;47.982;11.516;2023-08-21T05:19:56;7.22;;;4.60;;
71106;SDS011;58763;47.982;11.516;2023-08-21T05:22:21;11.45;;;5.55;;
71106;SDS011;58763;47.982;11.516;2023-08-21T05:24:47;7.10;;;4.78;;
71106;SDS011;58763;47.982;11.516;2023-08-21T05:27:12;10.45;;;5.50;;
71106;SDS011;58763;47.982;11.516;2023-08-21T05:29:38;10.25;;;4.60;;
71106;SDS011;58763;47.982;11.516;2023-08-21T05:32:04;6.78;;;4.60;;
71106;SDS011;58763;47.982;11.516;2023-08-21T05:34:30;9.23;;;4.95;;
71106;SDS011;58763;47.982;11.516;2023-08-21T05:36:57;7.45;;;4.78;;
71106;SDS011;58763;47.982;11.516;2023-08-21T05:39:22;9.45;;;5.13;;
71106;SDS011;58763;47.982;11.516;2023-08-21T05:41:48;8.43;;;4.70;;
71106;SDS011;58763;47.982;11.516;2023-08-21T05:44:13;10.15;;;5.63;;
71106;SDS011;58763;47.982;11.516;2023-08-21T05:46:39;8.30;;;5.15;;
71106;SDS011;58763;47.982;11.516;2023-08-21T05:49:04;8.32;;;4.80;;
71106;SDS011;58763;47.982;11.516;2023-08-21T05:51:30;7.28;;;4.85;;
71106;SDS011;58763;47.982;11.516;2023-08-21T05:53:58;9.10;;;5.13;;
71106;SDS011;58763;47.982;11.516;2023-08-21T05:56:24;9.10;;;4.80;;
71106;SDS011;58763;47.982;11.516;2023-08-21T05:58:51;9.05;;;5.22;;
71106;SDS011;58763;47.982;11.516;2023-08-21T06:01:35;8.35;;;5.10;;
71106;SDS011;58763;47.982;11.516;2023-08-21T06:04:00;7.95;;;5.10;;
71106;SDS011;58763;47.982;11.516;2023-08-21T06:06:28;8.35;;;5.00;;
71106;SDS011;58763;47.982;11.516;2023-08-21T06:08:54;7.78;;;4.70;;
71106;SDS011;58763;47.982;11.516;2023-08-21T06:11:19;9.02;;;5.10;;
71106;SDS011;58763;47.982;11.516;2023-08-21T06:13:45;8.48;;;5.63;;
71106;SDS011;58763;47.982;11.516;2023-08-21T06:16:10;9.68;;;4.93;;
71106;SDS011;58763;47.982;11.516;2023-08-21T06:18:35;9.60;;;4.95;;
71106;SDS011;58763;47.982;11.516;2023-08-21T06:21:01;8.52;;;5.07;;
71106;SDS011;58763;47.982;11.516;2023-08-21T06:23:26;8.93;;;5.38;;
71106;SDS011;58763;47.982;11.516;2023-08-21T06:25:51;10.95;;;5.10;;
71106;SDS011;58763;47.982;11.516;2023-08-21T06:28:17;8.30;;;5.50;;
71106;SDS011;58763;47.982;11.516;2023-08-21T06:30:42;10.10;;;5.60;;
71106;SDS011;58763;47.982;11.516;2023-08-21T06:33:11;8.77;;;5.40;;
71106;SDS011;58763;47.982;11.516;2023-08-21T06:35:37;9.95;;;5.43;;
71106;SDS011;58763;47.982;11.516;2023-08-21T06:38:08;8.63;;;5.13;;
71106;SDS011;58763;47.982;11.516;2023-08-21T06:40:33;8.43;;;5.18;;
71106;SDS011;58763;47.982;11.516;2023-08-21T06:42:59;9.35;;;5.13;;
71106;SDS011;58763;47.982;11.516;2023-08-21T06:45:24;9.80;;;5.53;;
71106;SDS011;58763;47.982;11.516;2023-08-21T06:47:50;9.32;;;5.28;;
71106;SDS011;58763;47.982;11.516;2023-08-21T06:50:16;10.70;;;5.53;;
71106;SDS011;58763;47.982;11.516;2023-08-21T06:52:41;9.32;;;5.50;;
71106;SDS011;58763;47.982;11.516;2023-08-21T06:55:09;7.78;;;5.15;;
71106;SDS011;58763;47.982;11.516;2023-08-21T06:57:35;9.70;;;5.32;;
71106;SDS011;58763;47.982;11.516;2023-08-21T07:00:04;9.18;;;5.13;;
71106;SDS011;58763;47.982;11.516;2023-08-21T07:02:30;9.07;;;4.85;;
71106;SDS011;58763;47.982;11.516;2023-08-21T07:04:56;7.68;;;4.68;;
71106;SDS011;58763;47.982;11.516;2023-08-21T07:07:21;11.48;;;4.93;;
71106;SDS011;58763;47.982;11.516;2023-08-21T07:09:47;9.77;;;5.15;;
71106;SDS011;58763;47.982;11.516;2023-08-21T07:12:14;8.07;;;4.65;;
71106;SDS011;58763;47.982;11.516;2023-08-21T07:14:39;8.95;;;5.15;;
71106;SDS011;58763;47.982;11.516;2023-08-21T07:17:04;8.15;;;5.10;;
71106;SDS011;58763;47.982;11.516;2023-08-21T07:19:30;7.60;;;5.00;;
71106;SDS011;58763;47.982;11.516;2023-08-21T07:21:55;9.75;;;5.05;;
71106;SDS011;58763;47.982;11.516;2023-08-21T07:24:21;7.70;;;5.15;;
71106;SDS011;58763;47.982;11.516;2023-08-21T07:26:46;10.23;;;4.65;;
71106;SDS011;58763;47.982;11.516;2023-08-21T07:29:12;7.70;;;4.80;;
71106;SDS011;58763;47.982;11.516;2023-08-21T07:31:37;7.70;;;5.13;;
71106;SDS011;58763;47.982;11.516;2023-08-21T07:34:02;9.50;;;5.10;;
71106;SDS011;58763;47.982;11.516;2023-08-21T07:36:28;10.73;;;5.43;;
71106;SDS011;58763;47.982;11.516;2023-08-21T07:38:53;7.47;;;4.65;;
71106;SDS011;58763;47.982;11.516;2023-08-21T07:41:19;9.15;;;5.00;;
71106;SDS011;58763;47.982;11.516;2023-08-21T07:43:45;7.70;;;4.65;;
71106;SDS011;58763;47.982;11.516;2023-08-21T07:46:11;8.63;;;5.05;;
71106;SDS011;58763;47.982;11.516;2023-08-21T07:48:43;9.32;;;4.65;;
71106;SDS011;58763;47.982;11.516;2023-08-21T07:51:09;7.43;;;4.93;;
71106;SDS011;58763;47.982;11.516;2023-08-21T07:53:35;7.47;;;4.60;;
71106;SDS011;58763;47.982;11.516;2023-08-21T07:56:01;7.85;;;5.05;;
71106;SDS011;58763;47.982;11.516;2023-08-21T07:58:28;9.35;;;5.20;;
71106;SDS011;58763;47.982;11.516;2023-08-21T08:00:54;7.82;;;5.30;;
71106;SDS011;58763;47.982;11.516;2023-08-21T08:03:20;8.60;;;5.20;;
71106;SDS011;58763;47.982;11.516;2023-08-21T08:05:46;8.15;;;4.95;;
71106;SDS011;58763;47.982;11.516;2023-08-21T08:08:11;6.35;;;4.53;;
71106;SDS011;58763;47.982;11.516;2023-08-21T08:10:37;6.20;;;4.80;;
71106;SDS011;58763;47.982;11.516;2023-08-21T08:13:05;6.43;;;4.72;;
71106;SDS011;58763;47.982;11.516;2023-08-21T08:15:32;8.18;;;4.93;;
71106;SDS011;58763;47.982;11.516;2023-08-21T08:17:59;8.18;;;4.97;;
71106;SDS011;58763;47.982;11.516;2023-08-21T08:20:24;6.65;;;4.70;;
71106;SDS011;58763;47.982;11.516;2023-08-21T08:22:50;7.68;;;4.68;;
71106;SDS011;58763;47.982;11.516;2023-08-21T08:25:15;9.00;;;4.78;;
71106;SDS011;58763;47.982;11.516;2023-08-21T08:27:43;9.20;;;5.05;;
71106;SDS011;58763;47.982;11.516;2023-08-21T08:30:08;8.18;;;4.88;;
71106;SDS011;58763;47.982;11.516;2023-08-21T08:32:34;8.45;;;5.28;;
71106;SDS011;58763;47.982;11.516;2023-08-21T08:35:00;8.82;;;4.70;;
71106;SDS011;58763;47.982;11.516;2023-08-21T08:37:25;8.82;;;4.85;;
71106;SDS011;58763;47.982;11.516;2023-08-21T08:39:51;7.07;;;4.82;;
71106;SDS011;58763;47.982;11.516;2023-08-21T08:42:16;7.55;;;4.93;;
71106;SDS011;58763;47.982;11.516;2023-08-21T08:44:42;7.35;;;5.03;;
71106;SDS011;58763;47.982;11.516;2023-08-21T08:47:09;6.47;;;4.50;;
71106;SDS011;58763;47.982;11.516;2023-08-21T08:49:35;7.30;;;4.35;;
71106;SDS011;58763;47.982;11.516;2023-08-21T08:52:02;7.75;;;4.72;;
71106;SDS011;58763;47.982;11.516;2023-08-21T08:54:28;5.95;;;4.10;;
71106;SDS011;58763;47.982;11.516;2023-08-21T08:56:55;6.10;;;4.30;;
71106;SDS011;58763;47.982;11.516;2023-08-21T08:59:20;7.00;;;4.38;;
71106;SDS011;58763;47.982;11.516;2023-08-21T09:01:46;5.75;;;4.43;;
71106;SDS011;58763;47.982;11.516;2023-08-21T09:04:12;7.13;;;4.40;;
71106;SDS011;58763;47.982;11.516;2023-08-21T09:06:37;6.40;;;4.30;;
71106;SDS011;58763;47.982;11.516;2023-08-21T09:09:03;6.47;;;4.32;;
71106;SDS011;58763;47.982;11.516;2023-08-21T09:11:29;6.78;;;4.18;;
71106;SDS011;58763;47.982;11.516;2023-08-21T09:13:58;6.03;;;4.30;;
71106;SDS011;58763;47.982;11.516;2023-08-21T09:16:24;7.93;;;4.45;;
71106;SDS011;58763;47.982;11.516;2023-08-21T09:18:51;6.15;;;4.38;;
71106;SDS011;58763;47.982;11.516;2023-08-21T09:21:19;6.10;;;4.38;;
71106;SDS011;58763;47.982;11.516;2023-08-21T09:23:45;5.43;;;4.40;;
71106;SDS011;58763;47.982;11.516;2023-08-21T09:26:20;6.93;;;4.40;;
71106;SDS011;58763;47.982;11.516;2023-08-21T09:28:50;6.68;;;4.53;;
71106;SDS011;58763;47.982;11.516;2023-08-21T09:31:21;7.80;;;4.30;;
71106;SDS011;58763;47.982;11.516;2023-08-21T09:34:01;6.10;;;4.10;;
71106;SDS011;58763;47.982;11.516;2023-08-21T09:36:34;5.70;;;3.70;;
71106;SDS011;58763;47.982;11.516;2023-08-21T09:39:00;5.85;;;4.10;;
71106;SDS011;58763;47.982;11.516;2023-08-21T09:41:27;5.85;;;4.10;;
71106;SDS011;58763;47.982;11.516;2023-08-21T09:43:53;8.63;;;4.00;;
71106;SDS011;58763;47.982;11.516;2023-08-21T09:46:24;7.13;;;4.05;;
71106;SDS011;58763;47.982;11.516;2023-08-21T09:48:51;5.45;;;3.85;;
71106;SDS011;58763;47.982;11.516;2023-08-21T09:51:18;7.32;;;4.20;;
71106;SDS011;58763;47.982;11.516;2023-08-21T09:53:44;5.28;;;3.78;;
71106;SDS011;58763;47.982;11.516;2023-08-21T09:56:09;7.55;;;4.15;;
71106;SDS011;58763;47.982;11.516;2023-08-21T09:58:35;7.22;;;4.28;;
71106;SDS011;58763;47.982;11.516;2023-08-21T10:01:04;7.35;;;4.57;;
71106;SDS011;58763;47.982;11.516;2023-08-21T10:03:39;5.38;;;3.92;;
71106;SDS011;58763;47.982;11.516;2023-08-21T10:06:08;5.63;;;3.72;;
71106;SDS011;58763;47.982;11.516;2023-08-21T10:08:38;7.55;;;3.78;;
71106;SDS011;58763;47.982;11.516;2023-08-21T10:11:08;5.15;;;3.67;;
71106;SDS011;58763;47.982;11.516;2023-08-21T10:13:35;7.00;;;3.92;;
71106;SDS011;58763;47.982;11.516;2023-08-21T10:16:03;6.53;;;3.88;;
71106;SDS011;58763;47.982;11.516;2023-08-21T10:18:34;5.07;;;3.75;;
71106;SDS011;58763;47.982;11.516;2023-08-21T10:21:16;5.70;;;3.72;;
71106;SDS011;58763;47.982;11.516;2023-08-21T10:23:50;7.65;;;4.28;;
71106;SDS011;58763;47.982;11.516;2023-08-21T10:26:19;5.93;;;3.55;;
71106;SDS011;58763;47.982;11.516;2023-08-21T10:28:49;5.70;;;4.07;;
71106;SDS011;58763;47.982;11.516;2023-08-21T10:31:35;6.73;;;3.33;;
71106;SDS011;58763;47.982;11.516;2023-08-21T10:34:04;6.18;;;3.40;;
71106;SDS011;58763;47.982;11.516;2023-08-21T10:39:14;5.47;;;4.00;;
71106;SDS011;58763;47.982;11.516;2023-08-21T10:42:04;6.30;;;3.78;;
71106;SDS011;58763;47.982;11.516;2023-08-21T10:44:36;4.43;;;3.08;;
71106;SDS011;58763;47.982;11.516;2023-08-21T10:50:00;4.90;;;2.95;;
71106;SDS011;58763;47.982;11.516;2023-08-21T10:52:29;4.40;;;3.22;;
71106;SDS011;58763;47.982;11.516;2023-08-21T10:55:07;6.75;;;3.65;;
71106;SDS011;58763;47.982;11.516;2023-08-21T10:57:34;7.40;;;4.43;;
71106;SDS011;58763;47.982;11.516;2023-08-21T11:02:37;6.93;;;3.85;;
71106;SDS011;58763;47.982;11.516;2023-08-21T11:05:04;5.53;;;3.88;;
71106;SDS011;58763;47.982;11.516;2023-08-21T11:07:30;6.47;;;3.60;;
71106;SDS011;58763;47.982;11.516;2023-08-21T11:10:01;5.70;;;3.85;;
71106;SDS011;58763;47.982;11.516;2023-08-21T11:12:27;6.15;;;3.92;;
71106;SDS011;58763;47.982;11.516;2023-08-21T11:14:53;6.35;;;4.03;;
71106;SDS011;58763;47.982;11.516;2023-08-21T11:17:18;5.78;;;3.70;;
71106;SDS011;58763;47.982;11.516;2023-08-21T11:19:44;5.38;;;3.75;;
71106;SDS011;58763;47.982;11.516;2023-08-21T11:22:10;6.13;;;3.28;;
71106;SDS011;58763;47.982;11.516;2023-08-21T11:27:02;8.38;;;3.28;;
71106;SDS011;58763;47.982;11.516;2023-08-21T11:29:32;7.38;;;3.03;;
71106;SDS011;58763;47.982;11.516;2023-08-21T11:32:02;5.38;;;3.88;;
71106;SDS011;58763;47.982;11.516;2023-08-21T11:34:28;5.18;;;3.42;;
71106;SDS011;58763;47.982;11.516;2023-08-21T11:36:54;5.95;;;3.30;;
71106;SDS011;58763;47.982;11.516;2023-08-21T11:39:20;6.20;;;3.55;;
71106;SDS011;58763;47.982;11.516;2023-08-21T11:41:56;4.90;;;3.35;;
71106;SDS011;58763;47.982;11.516;2023-08-21T11:44:22;5.90;;;3.10;;
71106;SDS011;58763;47.982;11.516;2023-08-21T11:46:50;5.70;;;3.10;;
71106;SDS011;58763;47.982;11.516;2023-08-21T11:51:44;4.60;;;3.30;;
71106;SDS011;58763;47.982;11.516;2023-08-21T11:54:10;10.35;;;3.60;;
71106;SDS011;58763;47.982;11.516;2023-08-21T11:56:36;4.88;;;3.15;;
71106;SDS011;58763;47.982;11.516;2023-08-21T11:59:04;5.75;;;3.40;;
71106;SDS011;58763;47.982;11.516;2023-08-21T12:01:32;4.90;;;3.70;;
71106;SDS011;58763;47.982;11.516;2023-08-21T12:03:58;6.18;;;3.10;;
71106;SDS011;58763;47.982;11.516;2023-08-21T12:06:24;5.05;;;3.33;;
71106;SDS011;58763;47.982;11.516;2023-08-21T12:08:57;7.47;;;3.55;;
71106;SDS011;58763;47.982;11.516;2023-08-21T12:11:22;5.32;;;3.10;;
71106;SDS011;58763;47.982;11.516;2023-08-21T12:13:48;4.97;;;3.60;;
71106;SDS011;58763;47.982;11.516;2023-08-21T12:16:13;6.68;;;3.92;;
71106;SDS011;58763;47.982;11.516;2023-08-21T12:18:39;6.78;;;3.60;;
71106;SDS011;58763;47.982;11.516;2023-08-21T12:21:04;5.75;;;3.72;;
71106;SDS011;58763;47.982;11.516;2023-08-21T12:23:32;5.65;;;3.58;;
71106;SDS011;58763;47.982;11.516;2023-08-21T12:25:57;5.43;;;3.55;;
71106;SDS011;58763;47.982;11.516;2023-08-21T12:28:24;5.25;;;3.40;;
71106;SDS011;58763;47.982;11.516;2023-08-21T12:30:50;5.15;;;3.78;;
71106;SDS011;58763;47.982;11.516;2023-08-21T12:33:15;6.78;;;3.67;;
71106;SDS011;58763;47.982;11.516;2023-08-21T12:35:41;7.60;;;3.40;;
71106;SDS011;58763;47.982;11.516;2023-08-21T12:38:10;6.13;;;3.45;;
71106;SDS011;58763;47.982;11.516;2023-08-21T12:40:37;6.50;;;3.80;;
71106;SDS011;58763;47.982;11.516;2023-08-21T12:43:03;7.63;;;3.80;;
71106;SDS011;58763;47.982;11.516;2023-08-21T12:45:29;5.47;;;3.38;;
71106;SDS011;58763;47.982;11.516;2023-08-21T12:47:55;4.68;;;3.50;;
71106;SDS011;58763;47.982;11.516;2023-08-21T12:50:20;8.63;;;3.60;;
71106;SDS011;58763;47.982;11.516;2023-08-21T12:52:46;5.40;;;3.50;;
71106;SDS011;58763;47.982;11.516;2023-08-21T12:55:11;5.72;;;3.90;;
71106;SDS011;58763;47.982;11.516;2023-08-21T12:57:37;8.57;;;3.90;;
71106;SDS011;58763;47.982;11.516;2023-08-21T13:00:03;6.15;;;4.10;;
71106;SDS011;58763;47.982;11.516;2023-08-21T13:02:29;8.93;;;3.92;;
71106;SDS011;58763;47.982;11.516;2023-08-21T13:04:55;8.48;;;3.78;;
71106;SDS011;58763;47.982;11.516;2023-08-21T13:07:20;5.68;;;3.38;;
71106;SDS011;58763;47.982;11.516;2023-08-21T13:09:46;5.22;;;3.40;;
71106;SDS011;58763;47.982;11.516;2023-08-21T13:12:11;6.82;;;3.80;;
71106;SDS011;58763;47.982;11.516;2023-08-21T13:14:37;8.70;;;3.67;;
71106;SDS011;58763;47.982;11.516;2023-08-21T13:17:02;7.20;;;3.83;;
71106;SDS011;58763;47.982;11.516;2023-08-21T13:19:28;6.55;;;3.72;;
71106;SDS011;58763;47.982;11.516;2023-08-21T13:21:53;4.97;;;3.50;;
71106;SDS011;58763;47.982;11.516;2023-08-21T13:24:20;7.80;;;3.50;;
71106;SDS011;58763;47.982;11.516;2023-08-21T13:26:46;6.45;;;3.70;;
71106;SDS011;58763;47.982;11.516;2023-08-21T13:29:12;5.38;;;3.58;;
71106;SDS011;58763;47.982;11.516;2023-08-21T13:31:37;7.07;;;3.58;;
71106;SDS011;58763;47.982;11.516;2023-08-21T13:34:03;5.95;;;3.83;;
71106;SDS011;58763;47.982;11.516;2023-08-21T13:36:29;6.13;;;4.03;;
71106;SDS011;58763;47.982;11.516;2023-08-21T13:38:55;6.93;;;3.88;;
71106;SDS011;58763;47.982;11.516;2023-08-21T13:41:20;5.70;;;3.38;;
71106;SDS011;58763;47.982;11.516;2023-08-21T13:43:46;10.50;;;4.20;;
71106;SDS011;58763;47.982;11.516;2023-08-21T13:46:11;15.73;;;4.18;;
71106;SDS011;58763;47.982;11.516;2023-08-21T13:48:37;7.13;;;4.00;;
71106;SDS011;58763;47.982;11.516;2023-08-21T13:51:02;9.82;;;3.45;;
71106;SDS011;58763;47.982;11.516;2023-08-21T13:53:28;8.82;;;3.55;;
71106;SDS011;58763;47.982;11.516;2023-08-21T13:55:53;7.50;;;3.72;;
71106;SDS011;58763;47.982;11.516;2023-08-21T13:58:18;6.50;;;3.42;;
71106;SDS011;58763;47.982;11.516;2023-08-21T14:00:44;6.40;;;3.58;;
71106;SDS011;58763;47.982;11.516;2023-08-21T14:03:10;7.30;;;3.63;;
71106;SDS011;58763;47.982;11.516;2023-08-21T14:05:36;5.70;;;3.65;;
71106;SDS011;58763;47.982;11.516;2023-08-21T14:08:01;6.88;;;3.50;;
71106;SDS011;58763;47.982;11.516;2023-08-21T14:10:27;5.70;;;3.60;;
71106;SDS011;58763;47.982;11.516;2023-08-21T14:12:52;8.15;;;3.42;;
71106;SDS011;58763;47.982;11.516;2023-08-21T14:15:18;6.53;;;3.55;;
71106;SDS011;58763;47.982;11.516;2023-08-21T14:17:44;5.55;;;3.40;;
71106;SDS011;58763;47.982;11.516;2023-08-21T14:20:10;4.88;;;3.33;;
71106;SDS011;58763;47.982;11.516;2023-08-21T14:22:38;7.63;;;3.40;;
71106;SDS011;58763;47.982;11.516;2023-08-21T14:25:04;5.53;;;3.38;;
71106;SDS011;58763;47.982;11.516;2023-08-21T14:27:32;9.23;;;3.90;;
71106;SDS011;58763;47.982;11.516;2023-08-21T14:29:58;6.63;;;3.53;;
71106;SDS011;58763;47.982;11.516;2023-08-21T14:32:24;8.90;;;3.65;;
71106;SDS011;58763;47.982;11.516;2023-08-21T14:34:50;5.03;;;3.28;;
71106;SDS011;58763;47.982;11.516;2023-08-21T14:37:16;7.65;;;3.17;;
71106;SDS011;58763;47.982;11.516;2023-08-21T14:39:41;5.78;;;3.60;;
71106;SDS011;58763;47.982;11.516;2023-08-21T14:42:10;6.07;;;3.47;;
71106;SDS011;58763;47.982;11.516;2023-08-21T14:44:36;6.40;;;3.60;;
71106;SDS011;58763;47.982;11.516;2023-08-21T14:47:03;5.55;;;3.75;;
71106;SDS011;58763;47.982;11.516;2023-08-21T14:49:28;5.88;;;3.30;;
71106;SDS011;58763;47.982;11.516;2023-08-21T14:51:54;4.90;;;3.00;;